Terminal Aerodrome Forecast
Issued by NWS Corpus Christi, TX

Home | Current Version | Previous Version | Text Only | Print | Product List | Glossary On
Versions: 1 2 3 4 5 6 7 8 9 10 11 12 13 14 15 16 17 18
000
FTUS44 KCRP 050531
TAFVCT
TAF
KVCT 050531Z 0506/0606 13005KT P6SM FEW020
     FM051000 VRB03KT 5SM BR SCT015
     FM051400 17008KT P6SM VCSH SCT025 BKN100
     FM052200 15015KT P6SM VCSH SCT050
     FM060100 15005KT P6SM FEW035=

USA.gov is the U.S. government's official web portal to all federal, state and local government web resources and services.